Time;durP1;ratioP1;P1;durP2;ratioP2;P2;SDS_P1;SDS_P2;PMS_P1;PMS_P2;Temp;Humidity;BMP_temperature;BMP_pressure;BME280_temperature;BME280_humidity;BME280_pressure;Samples;Min_cycle;Max_cycle;Signal;HPM_P1;HPM_P2
2024/02/14 00:00:20;;;;;;;9.68;3.90;;;;;;;;;;5024524;28;20052;-81
2024/02/14 00:02:53;;;;;;;6.97;3.45;;;;;;;;;;5023531;28;20790;-81
2024/02/14 00:05:23;;;;;;;4.72;3.25;;;;;;;;;;5026019;28;20053;-81
2024/02/14 00:08:00;;;;;;;7.57;3.72;;;;;;;;;;5025155;28;20057;-81
2024/02/14 00:10:33;;;;;;;7.00;3.25;;;;;;;;;;5028038;28;20076;-80
2024/02/14 00:13:08;;;;;;;8.00;3.85;;;;;;;;;;5026796;28;20053;-81
2024/02/14 00:15:39;;;;;;;4.53;3.50;;;;;;;;;;5024116;28;20553;-80
2024/02/14 00:18:11;;;;;;;5.53;3.35;;;;;;;;;;5040060;28;20079;-80
2024/02/14 00:20:41;;;;;;;5.97;3.53;;;;;;;;;;5035175;28;20065;-81
2024/02/14 00:23:12;;;;;;;5.18;3.72;;;;;;;;;;5018159;28;20558;-77
2024/02/14 00:25:46;;;;;;;5.93;3.40;;;;;;;;;;5021566;28;20096;-77
2024/02/14 00:28:17;;;;;;;8.43;3.80;;;;;;;;;;5016537;28;20495;-76
2024/02/14 00:31:01;;;;;;;7.55;3.80;;;;;;;;;;5016821;28;20056;-77
2024/02/14 00:33:33;;;;;;;7.47;4.03;;;;;;;;;;5019226;28;20049;-77
2024/02/14 00:36:08;;;;;;;8.70;3.67;;;;;;;;;;5035066;28;20065;-76
2024/02/14 00:38:38;;;;;;;6.47;3.20;;;;;;;;;;5034395;28;20052;-77
2024/02/14 00:41:08;;;;;;;4.45;3.60;;;;;;;;;;5034495;28;20609;-77
2024/02/14 00:43:36;;;;;;;4.45;3.35;;;;;;;;;;5010684;28;20053;-77
2024/02/14 00:46:04;;;;;;;5.47;3.78;;;;;;;;;;5018092;28;20064;-77
2024/02/14 00:48:32;;;;;;;6.18;3.92;;;;;;;;;;5014409;28;20053;-77
2024/02/14 00:51:08;;;;;;;4.28;3.58;;;;;;;;;;5033300;28;20431;-77
2024/02/14 00:53:38;;;;;;;5.22;3.42;;;;;;;;;;5019401;28;20053;-77
2024/02/14 00:56:07;;;;;;;8.43;3.50;;;;;;;;;;5018332;28;20057;-77
2024/02/14 00:58:41;;;;;;;8.07;3.88;;;;;;;;;;5014599;28;20137;-77
2024/02/14 01:01:09;;;;;;;6.38;3.88;;;;;;;;;;5017207;28;20056;-76
2024/02/14 01:03:42;;;;;;;7.22;3.80;;;;;;;;;;5018926;28;20049;-77
2024/02/14 01:06:15;;;;;;;8.75;4.07;;;;;;;;;;5032036;28;20080;-74
2024/02/14 01:08:42;;;;;;;7.75;4.07;;;;;;;;;;5045171;28;20047;-75
2024/02/14 01:11:10;;;;;;;11.85;4.47;;;;;;;;;;5033414;28;20419;-74
2024/02/14 01:13:38;;;;;;;10.55;4.70;;;;;;;;;;5036549;28;20056;-77
2024/02/14 01:16:09;;;;;;;7.32;4.60;;;;;;;;;;5021805;28;20059;-78
2024/02/14 01:18:37;;;;;;;7.18;3.70;;;;;;;;;;5023430;28;20423;-78
2024/02/14 01:21:16;;;;;;;6.80;4.10;;;;;;;;;;5023208;28;20055;-78
2024/02/14 01:23:47;;;;;;;5.90;4.50;;;;;;;;;;5036067;28;20073;-78
2024/02/14 01:26:15;;;;;;;4.75;3.88;;;;;;;;;;5023307;28;20107;-78
2024/02/14 01:28:45;;;;;;;8.88;4.07;;;;;;;;;;5021123;28;20053;-77
2024/02/14 01:31:13;;;;;;;8.43;4.13;;;;;;;;;;5036611;28;20490;-78
2024/02/14 01:33:45;;;;;;;8.13;3.65;;;;;;;;;;5036513;28;20490;-77
2024/02/14 01:36:16;;;;;;;7.47;3.30;;;;;;;;;;5021783;28;20053;-78
2024/02/14 01:38:45;;;;;;;7.00;3.92;;;;;;;;;;5037703;28;20111;-75
2024/02/14 01:41:15;;;;;;;4.95;3.33;;;;;;;;;;5016612;28;20422;-77
2024/02/14 01:43:44;;;;;;;5.22;2.65;;;;;;;;;;5026823;28;20053;-76
2024/02/14 01:46:12;;;;;;;4.35;3.28;;;;;;;;;;5006647;28;20065;-76
2024/02/14 01:48:40;;;;;;;5.70;3.15;;;;;;;;;;5029968;28;20084;-78
2024/02/14 01:51:08;;;;;;;3.55;2.55;;;;;;;;;;5009545;28;20506;-77
2024/02/14 01:53:37;;;;;;;5.72;2.90;;;;;;;;;;5019038;28;20049;-78
2024/02/14 01:56:07;;;;;;;3.78;2.60;;;;;;;;;;5021042;28;20530;-78
2024/02/14 01:58:34;;;;;;;6.30;2.65;;;;;;;;;;5021686;28;20136;-79
2024/02/14 02:01:04;;;;;;;7.93;3.00;;;;;;;;;;5019992;28;20059;-76
2024/02/14 02:03:40;;;;;;;4.60;2.80;;;;;;;;;;5019563;28;20060;-77
2024/02/14 02:06:14;;;;;;;4.35;2.67;;;;;;;;;;5021312;28;20051;-78
2024/02/14 02:08:45;;;;;;;4.13;2.60;;;;;;;;;;5022837;28;20060;-77
2024/02/14 02:11:12;;;;;;;4.97;2.67;;;;;;;;;;5021792;28;20060;-77
2024/02/14 02:13:40;;;;;;;3.83;2.45;;;;;;;;;;5021070;28;20143;-78
2024/02/14 02:16:11;;;;;;;6.65;3.55;;;;;;;;;;5022103;28;20116;-78
2024/02/14 02:18:41;;;;;;;;;;;;;;;;;;5019062;28;20053;-78
2024/02/14 02:21:08;;;;;;;3.88;2.53;;;;;;;;;;5054009;28;19928;-77
2024/02/14 02:23:36;;;;;;;6.13;2.67;;;;;;;;;;5018013;28;20092;-78
2024/02/14 02:26:06;;;;;;;3.53;2.17;;;;;;;;;;5020326;28;20057;-79
2024/02/14 02:28:33;;;;;;;5.93;2.35;;;;;;;;;;5022001;28;20059;-78
2024/02/14 02:31:03;;;;;;;4.30;2.33;;;;;;;;;;5037453;28;20053;-78
2024/02/14 02:33:32;;;;;;;3.65;2.28;;;;;;;;;;5022249;28;20517;-77
2024/02/14 02:36:02;;;;;;;5.13;2.80;;;;;;;;;;5022115;28;20049;-78
2024/02/14 02:38:30;;;;;;;4.57;2.70;;;;;;;;;;5035547;28;20117;-78
2024/02/14 02:41:02;;;;;;;5.22;2.17;;;;;;;;;;5037609;28;20132;-77
2024/02/14 02:43:37;;;;;;;4.10;2.05;;;;;;;;;;5039117;28;20045;-78
2024/02/14 02:46:05;;;;;;;5.20;2.53;;;;;;;;;;5037174;28;20104;-77
2024/02/14 02:48:33;;;;;;;4.13;2.33;;;;;;;;;;5036758;28;20076;-77
2024/02/14 02:51:00;;;;;;;4.28;2.42;;;;;;;;;;5020352;28;20080;-78
2024/02/14 02:53:27;;;;;;;3.92;3.35;;;;;;;;;;5018440;28;20081;-78
2024/02/14 02:55:57;;;;;;;3.72;2.53;;;;;;;;;;5035792;28;20079;-77
2024/02/14 02:58:24;;;;;;;6.57;2.50;;;;;;;;;;5035691;28;20136;-78
2024/02/14 03:00:56;;;;;;;4.88;2.55;;;;;;;;;;5036410;28;20067;-77
2024/02/14 03:03:27;;;;;;;4.70;2.45;;;;;;;;;;5036635;28;20103;-78
2024/02/14 03:05:59;;;;;;;4.70;2.40;;;;;;;;;;5037589;28;20049;-78
2024/02/14 03:08:27;;;;;;;6.18;2.30;;;;;;;;;;5031188;28;20126;-78
2024/02/14 03:10:54;;;;;;;6.30;2.65;;;;;;;;;;5037804;28;20049;-79
2024/02/14 03:13:23;;;;;;;5.15;2.00;;;;;;;;;;5037686;28;20059;-78
2024/02/14 03:15:50;;;;;;;5.10;2.67;;;;;;;;;;5038738;28;20049;-78
2024/02/14 03:18:17;;;;;;;7.03;2.90;;;;;;;;;;5036050;28;20506;-78
2024/02/14 03:20:45;;;;;;;3.50;2.28;;;;;;;;;;5036234;28;20063;-76
2024/02/14 03:23:15;;;;;;;6.60;2.63;;;;;;;;;;5038528;28;20059;-78
2024/02/14 03:25:42;;;;;;;8.35;3.15;;;;;;;;;;5046130;28;20498;-78
2024/02/14 03:28:09;;;;;;;6.32;2.67;;;;;;;;;;5044649;28;20045;-76
2024/02/14 03:30:39;;;;;;;5.95;2.92;;;;;;;;;;5044556;28;20053;-77
2024/02/14 03:33:10;;;;;;;3.90;2.13;;;;;;;;;;5036677;28;20065;-77
2024/02/14 03:35:42;;;;;;;4.10;2.38;;;;;;;;;;5037255;28;20147;-78
2024/02/14 03:38:09;;;;;;;5.60;2.60;;;;;;;;;;5041371;28;20069;-77
2024/02/14 03:40:38;;;;;;;3.75;2.40;;;;;;;;;;5044764;28;20395;-78
2024/02/14 03:43:11;;;;;;;4.35;2.40;;;;;;;;;;5038962;28;20071;-78
2024/02/14 03:45:42;;;;;;;7.45;2.88;;;;;;;;;;5039953;28;20061;-78
2024/02/14 03:48:12;;;;;;;4.43;2.40;;;;;;;;;;5038293;28;20466;-78
2024/02/14 03:50:42;;;;;;;7.05;2.63;;;;;;;;;;5040147;28;20053;-78
2024/02/14 03:53:11;;;;;;;4.82;3.00;;;;;;;;;;5038496;28;20092;-77
2024/02/14 03:55:38;;;;;;;6.78;2.28;;;;;;;;;;5040160;28;20048;-78
2024/02/14 03:58:06;;;;;;;4.43;2.28;;;;;;;;;;5040257;28;20057;-78
2024/02/14 04:00:35;;;;;;;7.82;3.58;;;;;;;;;;5047040;28;20053;-77
2024/02/14 04:03:02;;;;;;;6.20;3.65;;;;;;;;;;5043684;28;20060;-76
2024/02/14 04:05:31;;;;;;;4.15;2.60;;;;;;;;;;5052986;28;20410;-77
2024/02/14 04:08:01;;;;;;;6.93;3.00;;;;;;;;;;5051586;28;20084;-76
2024/02/14 04:10:30;;;;;;;5.95;2.67;;;;;;;;;;5044328;28;20045;-75
2024/02/14 04:12:58;;;;;;;9.85;2.90;;;;;;;;;;5054126;28;20128;-77
2024/02/14 04:15:25;;;;;;;3.78;2.58;;;;;;;;;;5024212;28;20514;-78
2024/02/14 04:17:53;;;;;;;5.03;2.42;;;;;;;;;;5042216;28;20070;-77
2024/02/14 04:20:23;;;;;;;4.20;2.50;;;;;;;;;;5038729;28;20065;-77
2024/02/14 04:23:01;;;;;;;7.93;3.05;;;;;;;;;;5040399;28;20059;-77
2024/02/14 04:25:29;;;;;;;3.63;2.03;;;;;;;;;;5039545;28;20139;-77
2024/02/14 04:28:00;;;;;;;5.05;2.17;;;;;;;;;;5039681;28;20056;-76
2024/02/14 04:30:37;;;;;;;2.97;1.98;;;;;;;;;;5039930;28;20063;-78
2024/02/14 04:33:05;;;;;;;3.20;2.00;;;;;;;;;;5039087;28;20491;-78
2024/02/14 04:35:38;;;;;;;5.43;2.40;;;;;;;;;;5039354;28;20053;-77
2024/02/14 04:38:05;;;;;;;5.32;2.10;;;;;;;;;;5039450;28;20056;-78
2024/02/14 04:40:35;;;;;;;4.72;2.42;;;;;;;;;;5039296;28;20055;-76
2024/02/14 04:43:05;;;;;;;3.33;2.50;;;;;;;;;;5038871;28;20057;-78
2024/02/14 04:45:35;;;;;;;5.55;2.67;;;;;;;;;;5039501;28;20056;-79
2024/02/14 04:48:06;;;;;;;4.68;2.65;;;;;;;;;;5039718;28;20072;-79
2024/02/14 04:50:33;;;;;;;4.53;2.22;;;;;;;;;;5039627;28;20065;-79
2024/02/14 04:53:00;;;;;;;6.07;1.98;;;;;;;;;;5040618;28;20063;-79
2024/02/14 04:55:28;;;;;;;4.57;2.08;;;;;;;;;;5035104;28;20137;-78
2024/02/14 04:57:56;;;;;;;3.90;1.90;;;;;;;;;;5038869;28;20132;-78
2024/02/14 05:00:28;;;;;;;4.35;1.90;;;;;;;;;;5038992;28;20568;-78
2024/02/14 05:02:57;;;;;;;3.40;1.90;;;;;;;;;;5036876;28;20507;-77
2024/02/14 05:05:25;;;;;;;2.47;1.83;;;;;;;;;;5039427;28;20049;-78
2024/02/14 05:07:53;;;;;;;3.08;2.22;;;;;;;;;;5022153;28;20087;-77
2024/02/14 05:10:21;;;;;;;4.05;2.30;;;;;;;;;;5036659;28;20049;-73
2024/02/14 05:12:49;;;;;;;7.70;2.70;;;;;;;;;;5033537;28;20084;-73
2024/02/14 05:15:17;;;;;;;3.42;2.13;;;;;;;;;;5033982;28;20049;-74
2024/02/14 05:17:45;;;;;;;2.83;2.08;;;;;;;;;;5051384;28;20454;-75
2024/02/14 05:20:13;;;;;;;3.75;2.08;;;;;;;;;;5034759;28;20445;-82
2024/02/14 05:22:40;;;;;;;3.88;2.40;;;;;;;;;;5022906;28;20060;-79
2024/02/14 05:25:09;;;;;;;4.45;2.47;;;;;;;;;;5038659;28;20049;-80
2024/02/14 05:27:37;;;;;;;2.58;1.83;;;;;;;;;;5038862;28;20059;-79
2024/02/14 05:30:05;;;;;;;2.78;1.90;;;;;;;;;;5038925;28;20113;-80
2024/02/14 05:32:33;;;;;;;4.45;2.35;;;;;;;;;;5037853;28;20486;-80
2024/02/14 05:35:01;;;;;;;5.32;2.95;;;;;;;;;;5038844;28;20051;-80
2024/02/14 05:37:29;;;;;;;3.78;2.63;;;;;;;;;;5037142;28;20075;-78
2024/02/14 05:39:56;;;;;;;5.22;2.20;;;;;;;;;;5037056;28;20139;-78
2024/02/14 05:42:24;;;;;;;7.53;2.90;;;;;;;;;;5037628;28;20525;-78
2024/02/14 05:44:52;;;;;;;5.28;2.20;;;;;;;;;;5053959;28;20153;-77
2024/02/14 05:47:20;;;;;;;2.88;1.73;;;;;;;;;;5053062;28;20056;-76
2024/02/14 05:49:47;;;;;;;3.63;2.30;;;;;;;;;;5053883;28;20049;-79
2024/02/14 05:52:18;;;;;;;3.83;2.28;;;;;;;;;;5037958;28;20060;-79
2024/02/14 05:54:45;;;;;;;6.18;2.50;;;;;;;;;;5054397;28;20108;-78
2024/02/14 05:57:13;;;;;;;5.72;2.22;;;;;;;;;;5021537;28;20053;-78
2024/02/14 05:59:42;;;;;;;3.38;2.67;;;;;;;;;;5048752;28;20049;-78
2024/02/14 06:02:09;;;;;;;4.40;2.33;;;;;;;;;;5037168;28;20087;-78
2024/02/14 06:04:37;;;;;;;5.13;2.65;;;;;;;;;;5035723;28;20060;-77
2024/02/14 06:07:06;;;;;;;3.03;1.90;;;;;;;;;;5032703;28;20147;-77
2024/02/14 06:09:34;;;;;;;5.38;2.15;;;;;;;;;;5031056;28;20057;-77
2024/02/14 06:12:01;;;;;;;4.47;2.35;;;;;;;;;;5032113;28;20044;-77
2024/02/14 06:14:30;;;;;;;4.72;1.92;;;;;;;;;;5032646;28;20069;-78
2024/02/14 06:16:57;;;;;;;6.28;3.65;;;;;;;;;;5031892;28;20495;-77
2024/02/14 06:19:25;;;;;;;3.72;1.95;;;;;;;;;;5030845;28;20045;-78
2024/02/14 06:21:53;;;;;;;4.40;2.05;;;;;;;;;;5031544;28;20056;-77
2024/02/14 06:24:20;;;;;;;3.08;2.00;;;;;;;;;;5052091;28;20124;-78
2024/02/14 06:26:47;;;;;;;3.92;2.35;;;;;;;;;;5034280;28;20157;-78
2024/02/14 06:29:15;;;;;;;5.47;2.15;;;;;;;;;;5034631;28;20055;-79
2024/02/14 06:31:42;;;;;;;3.40;1.92;;;;;;;;;;5032418;28;20051;-77
2024/02/14 06:34:10;;;;;;;3.22;2.03;;;;;;;;;;5031575;28;20055;-75
2024/02/14 06:36:38;;;;;;;5.78;1.98;;;;;;;;;;5031684;28;20049;-77
2024/02/14 06:39:06;;;;;;;6.85;2.38;;;;;;;;;;5031680;28;20045;-78
2024/02/14 06:41:34;;;;;;;3.60;2.17;;;;;;;;;;5034216;28;20060;-75
2024/02/14 06:44:01;;;;;;;5.55;1.95;;;;;;;;;;5030565;28;20058;-76
2024/02/14 06:46:29;;;;;;;4.90;1.98;;;;;;;;;;5030862;28;20057;-75
2024/02/14 06:48:57;;;;;;;3.10;1.90;;;;;;;;;;5031235;28;20057;-75
2024/02/14 06:51:25;;;;;;;4.10;2.03;;;;;;;;;;5031206;28;20498;-75
2024/02/14 06:53:52;;;;;;;4.95;1.73;;;;;;;;;;5030966;28;20133;-75
2024/02/14 06:56:20;;;;;;;3.15;1.85;;;;;;;;;;5030748;28;20053;-75
2024/02/14 06:58:52;;;;;;;5.43;2.17;;;;;;;;;;5048295;28;20052;-75
2024/02/14 07:01:22;;;;;;;4.27;1.90;;;;;;;;;;5019378;28;20499;-75
2024/02/14 07:03:52;;;;;;;4.55;2.10;;;;;;;;;;5035162;28;20057;-75
2024/02/14 07:06:20;;;;;;;5.07;2.00;;;;;;;;;;5034873;28;20057;-75
2024/02/14 07:08:48;;;;;;;2.90;2.20;;;;;;;;;;5035666;28;20057;-75
2024/02/14 07:11:16;;;;;;;5.97;2.13;;;;;;;;;;5041693;28;20068;-75
2024/02/14 07:13:44;;;;;;;4.40;1.80;;;;;;;;;;5036292;28;20055;-76
2024/02/14 07:16:12;;;;;;;5.00;2.15;;;;;;;;;;5034856;28;20057;-75
2024/02/14 07:18:40;;;;;;;6.35;2.15;;;;;;;;;;5034601;28;20055;-74
2024/02/14 07:21:08;;;;;;;3.95;2.33;;;;;;;;;;5034886;28;20537;-75
2024/02/14 07:23:35;;;;;;;5.43;2.10;;;;;;;;;;5034576;28;20140;-75
2024/02/14 07:26:03;;;;;;;2.55;1.73;;;;;;;;;;5033381;28;20586;-75
2024/02/14 07:28:32;;;;;;;3.25;2.00;;;;;;;;;;5034097;28;20060;-75
2024/02/14 07:30:59;;;;;;;2.58;2.05;;;;;;;;;;5034572;28;20049;-78
2024/02/14 07:33:27;;;;;;;4.97;2.30;;;;;;;;;;5056633;28;20136;-76
2024/02/14 07:35:55;;;;;;;5.28;2.20;;;;;;;;;;5035301;28;20128;-77
2024/02/14 07:38:23;;;;;;;5.20;2.28;;;;;;;;;;5024940;28;20063;-75
2024/02/14 07:40:58;;;;;;;3.70;2.15;;;;;;;;;;5030999;28;20491;-74
2024/02/14 07:43:26;;;;;;;6.07;2.47;;;;;;;;;;5015715;28;20079;-75
2024/02/14 07:45:56;;;;;;;3.95;1.90;;;;;;;;;;5033122;28;20135;-76
2024/02/14 07:48:24;;;;;;;4.80;2.55;;;;;;;;;;5032846;28;20061;-74
2024/02/14 07:50:59;;;;;;;4.65;2.15;;;;;;;;;;5031778;28;20045;-77
2024/02/14 07:53:32;;;;;;;6.00;2.10;;;;;;;;;;5033409;28;20541;-75
2024/02/14 07:55:59;;;;;;;7.05;2.35;;;;;;;;;;5032570;28;20048;-76
2024/02/14 07:58:31;;;;;;;4.00;1.80;;;;;;;;;;5031805;28;20575;-74
2024/02/14 08:01:07;;;;;;;3.92;2.00;;;;;;;;;;5032447;28;20054;-75
2024/02/14 08:03:37;;;;;;;4.47;2.60;;;;;;;;;;5031593;28;20057;-78
2024/02/14 08:06:05;;;;;;;6.78;2.85;;;;;;;;;;5050436;28;20068;-81
2024/02/14 08:08:37;;;;;;;;;;;;;;;;;;5033238;28;20052;-79
2024/02/14 08:11:10;;;;;;;3.58;1.83;;;;;;;;;;5031601;28;19950;-77
2024/02/14 08:13:39;;;;;;;3.58;1.65;;;;;;;;;;5032696;28;20569;-76
2024/02/14 08:16:07;;;;;;;10.10;3.00;;;;;;;;;;5024152;28;20048;-76
2024/02/14 08:18:35;;;;;;;4.68;1.73;;;;;;;;;;5032710;28;20048;-76
2024/02/14 08:21:04;;;;;;;3.78;2.00;;;;;;;;;;5032521;28;20052;-76
2024/02/14 08:23:32;;;;;;;3.47;2.63;;;;;;;;;;5033638;28;20045;-76
2024/02/14 08:26:10;;;;;;;4.10;1.83;;;;;;;;;;5033032;28;20044;-76
2024/02/14 08:28:41;;;;;;;7.20;2.33;;;;;;;;;;5018400;28;20059;-76
2024/02/14 08:31:10;;;;;;;4.00;1.80;;;;;;;;;;5031797;28;20495;-76
2024/02/14 08:33:38;;;;;;;4.55;1.80;;;;;;;;;;5031850;28;20045;-76
2024/02/14 08:36:07;;;;;;;5.85;2.15;;;;;;;;;;5032889;28;20075;-77
2024/02/14 08:38:37;;;;;;;4.10;2.08;;;;;;;;;;5033034;28;20126;-77
2024/02/14 08:41:06;;;;;;;3.42;1.73;;;;;;;;;;5017026;28;20052;-76
2024/02/14 08:43:35;;;;;;;2.67;1.98;;;;;;;;;;5033296;28;20151;-76
2024/02/14 08:46:03;;;;;;;3.53;1.52;;;;;;;;;;5031836;28;20593;-77
2024/02/14 08:48:34;;;;;;;3.17;1.58;;;;;;;;;;5051358;28;20045;-76
2024/02/14 08:51:09;;;;;;;3.47;1.75;;;;;;;;;;5033507;28;20099;-77
2024/02/14 08:53:36;;;;;;;2.83;1.67;;;;;;;;;;5032505;28;20057;-76
2024/02/14 08:56:04;;;;;;;3.67;2.00;;;;;;;;;;5032715;28;20052;-76
2024/02/14 08:58:35;;;;;;;4.80;2.50;;;;;;;;;;5034524;28;20053;-79
2024/02/14 09:01:03;;;;;;;3.63;1.55;;;;;;;;;;5033826;28;20552;-78
2024/02/14 09:03:43;;;;;;;2.55;1.60;;;;;;;;;;5034030;28;20099;-80
2024/02/14 09:06:11;;;;;;;10.50;2.63;;;;;;;;;;5032990;28;20052;-77
2024/02/14 09:08:38;;;;;;;3.03;1.65;;;;;;;;;;5031604;28;20148;-77
2024/02/14 09:11:06;;;;;;;3.58;1.90;;;;;;;;;;5032627;28;20426;-77
2024/02/14 09:13:35;;;;;;;3.53;1.80;;;;;;;;;;5032126;28;20057;-76
2024/02/14 09:16:03;;;;;;;3.22;1.60;;;;;;;;;;5028835;28;20037;-77
2024/02/14 09:18:31;;;;;;;2.88;1.50;;;;;;;;;;5032760;28;20131;-76
2024/02/14 09:21:01;;;;;;;7.13;1.92;;;;;;;;;;5032273;28;20053;-77
2024/02/14 09:23:29;;;;;;;3.70;1.98;;;;;;;;;;5033952;28;20128;-77
2024/02/14 09:26:01;;;;;;;2.88;1.95;;;;;;;;;;5027766;28;20514;-77
2024/02/14 09:28:29;;;;;;;4.55;1.67;;;;;;;;;;5030037;28;20491;-77
2024/02/14 09:30:57;;;;;;;3.10;1.35;;;;;;;;;;5029786;28;20045;-77
2024/02/14 09:33:28;;;;;;;3.50;1.52;;;;;;;;;;5048917;28;20523;-77
2024/02/14 09:35:58;;;;;;;3.53;1.58;;;;;;;;;;5032064;28;20415;-77
2024/02/14 09:38:26;;;;;;;5.50;1.73;;;;;;;;;;5026294;28;20127;-76
2024/02/14 09:40:54;;;;;;;3.97;1.70;;;;;;;;;;5032437;28;20106;-77
2024/02/14 09:43:25;;;;;;;6.10;1.85;;;;;;;;;;5016934;28;20075;-78
2024/02/14 09:45:55;;;;;;;5.45;1.80;;;;;;;;;;5033462;28;20057;-77
2024/02/14 09:48:24;;;;;;;4.20;2.30;;;;;;;;;;5016955;28;20068;-77
2024/02/14 09:50:57;;;;;;;5.30;2.67;;;;;;;;;;5052068;28;20421;-78
2024/02/14 09:53:27;;;;;;;5.68;2.08;;;;;;;;;;5042250;28;20412;-76
2024/02/14 09:55:55;;;;;;;7.68;2.40;;;;;;;;;;5042796;28;20157;-76
2024/02/14 09:58:24;;;;;;;4.53;2.28;;;;;;;;;;5021334;28;20055;-77
2024/02/14 10:00:54;;;;;;;8.52;2.10;;;;;;;;;;5032739;28;20533;-77
2024/02/14 10:03:23;;;;;;;4.18;1.90;;;;;;;;;;5030868;28;20136;-74
2024/02/14 10:05:50;;;;;;;3.05;1.63;;;;;;;;;;5015158;28;20056;-77
2024/02/14 10:08:20;;;;;;;3.08;1.88;;;;;;;;;;5015770;28;20658;-77
2024/02/14 10:10:55;;;;;;;4.80;2.13;;;;;;;;;;5032140;28;20518;-78
2024/02/14 10:13:26;;;;;;;5.82;2.08;;;;;;;;;;5032807;28;20072;-77
2024/02/14 10:15:54;;;;;;;5.75;1.40;;;;;;;;;;5013963;28;20514;-77
2024/02/14 10:18:26;;;;;;;2.92;1.70;;;;;;;;;;5021118;28;20068;-77
2024/02/14 10:20:57;;;;;;;3.03;1.60;;;;;;;;;;5015066;28;20057;-77
2024/02/14 10:23:27;;;;;;;;;;;;;;;;;;5036621;28;20111;-77
2024/02/14 10:25:57;;;;;;;2.90;1.70;;;;;;;;;;5044525;28;19925;-78
2024/02/14 10:28:26;;;;;;;4.10;1.65;;;;;;;;;;5041132;28;20045;-76
2024/02/14 10:31:05;;;;;;;3.65;1.52;;;;;;;;;;5046446;28;20025;-83
2024/02/14 10:33:34;;;;;;;1.90;1.30;;;;;;;;;;5075311;28;20100;-81
2024/02/14 10:36:02;;;;;;;2.42;1.45;;;;;;;;;;5044937;28;20053;-78
2024/02/14 10:38:31;;;;;;;3.42;1.60;;;;;;;;;;5041056;28;20067;-82
2024/02/14 10:41:02;;;;;;;1.95;1.20;;;;;;;;;;5049192;28;20048;-83
2024/02/14 10:43:33;;;;;;;2.53;1.13;;;;;;;;;;5024720;28;20049;-82
2024/02/14 10:46:06;;;;;;;5.20;1.40;;;;;;;;;;5020477;28;20041;-81
2024/02/14 10:48:35;;;;;;;2.60;0.95;;;;;;;;;;5053740;28;20053;-81
2024/02/14 10:51:03;;;;;;;3.85;0.80;;;;;;;;;;5022715;28;20045;-82
2024/02/14 10:53:31;;;;;;;1.63;0.90;;;;;;;;;;5022809;28;20052;-81
2024/02/14 10:56:02;;;;;;;3.97;1.10;;;;;;;;;;5038079;28;20149;-81
2024/02/14 10:58:33;;;;;;;3.92;1.10;;;;;;;;;;5036083;28;20131;-81
2024/02/14 11:01:03;;;;;;;2.13;1.15;;;;;;;;;;5021820;28;20571;-77
2024/02/14 11:03:31;;;;;;;1.98;0.60;;;;;;;;;;5016433;28;20054;-77
2024/02/14 11:06:03;;;;;;;2.97;1.08;;;;;;;;;;5035090;28;20066;-78
2024/02/14 11:08:33;;;;;;;1.23;0.70;;;;;;;;;;5051153;28;20056;-77
2024/02/14 11:11:01;;;;;;;1.42;1.02;;;;;;;;;;5018649;28;20045;-77
2024/02/14 11:13:34;;;;;;;2.90;1.30;;;;;;;;;;5018021;28;20056;-77
2024/02/14 11:16:02;;;;;;;0.98;0.70;;;;;;;;;;5034627;28;20053;-77
2024/02/14 11:18:37;;;;;;;2.45;1.10;;;;;;;;;;5033001;28;20409;-78
2024/02/14 11:21:19;;;;;;;2.72;0.95;;;;;;;;;;5052539;28;20084;-78
2024/02/14 11:23:54;;;;;;;1.75;0.70;;;;;;;;;;5016986;28;20426;-77
2024/02/14 11:26:25;;;;;;;2.45;0.70;;;;;;;;;;5014313;28;20037;-77
2024/02/14 11:29:07;;;;;;;1.05;0.63;;;;;;;;;;5018511;28;20053;-77
2024/02/14 11:31:37;;;;;;;2.58;0.95;;;;;;;;;;5028657;28;20084;-75
2024/02/14 11:34:05;;;;;;;1.02;0.73;;;;;;;;;;5020875;28;20136;-77
2024/02/14 11:36:33;;;;;;;2.10;0.90;;;;;;;;;;5018761;28;20049;-77
2024/02/14 11:39:07;;;;;;;2.28;0.60;;;;;;;;;;5018118;28;20076;-78
2024/02/14 11:41:40;;;;;;;3.40;0.70;;;;;;;;;;5034272;28;20484;-77
2024/02/14 11:44:10;;;;;;;0.73;0.73;;;;;;;;;;5011486;28;20049;-77
2024/02/14 11:46:39;;;;;;;4.70;0.65;;;;;;;;;;5017771;28;20052;-77
2024/02/14 11:49:07;;;;;;;3.22;0.80;;;;;;;;;;5017871;28;20053;-77
2024/02/14 11:51:35;;;;;;;1.40;0.68;;;;;;;;;;5017557;28;20056;-76
2024/02/14 11:54:06;;;;;;;1.05;0.60;;;;;;;;;;5034515;28;20040;-77
2024/02/14 11:56:38;;;;;;;0.93;0.70;;;;;;;;;;5017730;28;20072;-77
2024/02/14 11:59:09;;;;;;;2.50;0.57;;;;;;;;;;5049793;28;20576;-77
2024/02/14 12:01:40;;;;;;;0.95;0.70;;;;;;;;;;5016716;28;20049;-77
2024/02/14 12:04:08;;;;;;;0.82;0.68;;;;;;;;;;5015165;28;20049;-77
2024/02/14 12:06:36;;;;;;;2.25;0.57;;;;;;;;;;5055021;28;20045;-80
2024/02/14 12:09:05;;;;;;;1.10;0.73;;;;;;;;;;5038333;28;20084;-80
2024/02/14 12:11:33;;;;;;;2.78;0.80;;;;;;;;;;5018778;28;20052;-80
2024/02/14 12:14:02;;;;;;;1.45;0.75;;;;;;;;;;5022770;28;20511;-81
2024/02/14 12:16:36;;;;;;;7.38;0.73;;;;;;;;;;5022226;28;20049;-80
2024/02/14 12:19:11;;;;;;;1.02;0.55;;;;;;;;;;5024825;28;20091;-80
2024/02/14 12:21:39;;;;;;;2.22;0.68;;;;;;;;;;5038168;28;20060;-80
2024/02/14 12:24:08;;;;;;;0.77;0.47;;;;;;;;;;5040153;28;20048;-79
2024/02/14 12:26:38;;;;;;;2.17;1.00;;;;;;;;;;5022625;28;20649;-80
2024/02/14 12:29:12;;;;;;;1.67;0.75;;;;;;;;;;5024039;28;20066;-78
2024/02/14 12:31:43;;;;;;;2.00;0.85;;;;;;;;;;5040494;28;20482;-81
2024/02/14 12:34:18;;;;;;;3.08;1.10;;;;;;;;;;5040121;28;20132;-82
2024/02/14 12:36:51;;;;;;;2.75;0.90;;;;;;;;;;5030753;28;20053;-76
2024/02/14 12:39:21;;;;;;;1.85;0.80;;;;;;;;;;5017492;28;20056;-76
2024/02/14 12:41:51;;;;;;;1.52;0.90;;;;;;;;;;5033516;28;20466;-75
2024/02/14 12:44:20;;;;;;;2.63;1.10;;;;;;;;;;5016712;28;20150;-77
2024/02/14 12:46:48;;;;;;;5.97;1.55;;;;;;;;;;5022463;28;20045;-76
2024/02/14 12:49:17;;;;;;;3.38;1.00;;;;;;;;;;5016789;28;20403;-76
2024/02/14 12:51:47;;;;;;;1.35;1.02;;;;;;;;;;5032677;28;20494;-77
2024/02/14 12:54:18;;;;;;;2.33;1.00;;;;;;;;;;5020996;28;20136;-78
2024/02/14 12:56:49;;;;;;;1.77;0.60;;;;;;;;;;5013845;28;20573;-79
2024/02/14 12:59:19;;;;;;;2.88;1.23;;;;;;;;;;5032913;28;20051;-77
2024/02/14 13:01:47;;;;;;;1.42;0.90;;;;;;;;;;5033227;28;20476;-77
2024/02/14 13:04:23;;;;;;;1.05;0.75;;;;;;;;;;5014425;28;20514;-76
2024/02/14 13:06:53;;;;;;;1.98;1.25;;;;;;;;;;5033897;28;20095;-77
2024/02/14 13:09:23;;;;;;;2.03;0.88;;;;;;;;;;5033433;28;20128;-77
2024/02/14 13:11:54;;;;;;;2.70;0.80;;;;;;;;;;5033186;28;20128;-76
2024/02/14 13:14:21;;;;;;;2.10;0.57;;;;;;;;;;5033556;28;20057;-77
2024/02/14 13:16:52;;;;;;;1.88;0.57;;;;;;;;;;5050992;28;20053;-76
2024/02/14 13:19:20;;;;;;;1.48;0.60;;;;;;;;;;5033772;28;20084;-77
2024/02/14 13:21:48;;;;;;;1.30;0.70;;;;;;;;;;5017667;28;20099;-77
2024/02/14 13:24:19;;;;;;;1.52;0.88;;;;;;;;;;5033848;28;20067;-77
2024/02/14 13:26:51;;;;;;;1.65;0.60;;;;;;;;;;5034468;28;20048;-77
2024/02/14 13:29:21;;;;;;;2.03;0.80;;;;;;;;;;5033563;28;20152;-77
2024/02/14 13:32:00;;;;;;;0.95;0.60;;;;;;;;;;5032865;28;20056;-76
2024/02/14 13:34:28;;;;;;;4.90;1.38;;;;;;;;;;5018279;28;20049;-77
2024/02/14 13:36:56;;;;;;;2.20;1.40;;;;;;;;;;5015946;28;20049;-77
2024/02/14 13:39:26;;;;;;;1.55;0.80;;;;;;;;;;5022763;28;20144;-76
2024/02/14 13:41:58;;;;;;;1.95;0.93;;;;;;;;;;5039373;28;20088;-76
2024/02/14 13:44:28;;;;;;;5.85;0.85;;;;;;;;;;5018845;28;20124;-77
2024/02/14 13:47:02;;;;;;;4.18;0.38;;;;;;;;;;5034056;28;20052;-76
2024/02/14 13:49:30;;;;;;;0.22;0.20;;;;;;;;;;5013751;28;20200;-77
2024/02/14 13:52:00;;;;;;;0.40;0.40;;;;;;;;;;5029551;28;20046;-76
2024/02/14 13:54:27;;;;;;;2.13;0.80;;;;;;;;;;5033302;28;20048;-76
2024/02/14 13:56:57;;;;;;;1.05;0.45;;;;;;;;;;5016950;28;20489;-77
2024/02/14 13:59:25;;;;;;;4.28;1.33;;;;;;;;;;5033110;28;20085;-77
2024/02/14 14:01:52;;;;;;;1.35;0.70;;;;;;;;;;5050711;28;20067;-76
2024/02/14 14:04:22;;;;;;;2.92;1.15;;;;;;;;;;5031336;28;20060;-77
2024/02/14 14:06:49;;;;;;;2.30;1.10;;;;;;;;;;5019414;28;20076;-78
2024/02/14 14:09:20;;;;;;;0.50;0.40;;;;;;;;;;5034250;28;20384;-78
2024/02/14 14:11:54;;;;;;;2.03;0.70;;;;;;;;;;5018232;28;20067;-78
2024/02/14 14:14:25;;;;;;;6.13;1.27;;;;;;;;;;5038973;28;20143;-77
2024/02/14 14:16:54;;;;;;;0.63;0.50;;;;;;;;;;5019168;28;20105;-77
2024/02/14 14:19:28;;;;;;;1.08;0.45;;;;;;;;;;5034194;28;20388;-77
2024/02/14 14:21:57;;;;;;;0.75;0.40;;;;;;;;;;5045880;28;20051;-76
2024/02/14 14:24:26;;;;;;;2.55;1.08;;;;;;;;;;5012091;28;20166;-77
2024/02/14 14:26:57;;;;;;;1.30;0.98;;;;;;;;;;5029917;28;20055;-77
2024/02/14 14:29:25;;;;;;;1.15;0.98;;;;;;;;;;5016569;28;20485;-77
2024/02/14 14:31:54;;;;;;;2.25;1.42;;;;;;;;;;5016793;28;20045;-77
2024/02/14 14:34:22;;;;;;;2.15;1.25;;;;;;;;;;5016353;28;20120;-77
2024/02/14 14:36:56;;;;;;;3.58;1.67;;;;;;;;;;5034032;28;20049;-77
2024/02/14 14:39:26;;;;;;;3.55;1.27;;;;;;;;;;5033835;28;20045;-77
2024/02/14 14:41:58;;;;;;;4.13;1.77;;;;;;;;;;5033762;28;20282;-77
2024/02/14 14:44:28;;;;;;;3.63;1.25;;;;;;;;;;5047097;28;20041;-77
2024/02/14 14:46:59;;;;;;;1.25;0.63;;;;;;;;;;5049958;28;20053;-77
2024/02/14 14:49:30;;;;;;;0.65;0.50;;;;;;;;;;5032746;28;20041;-77
2024/02/14 14:51:58;;;;;;;2.10;1.10;;;;;;;;;;5031846;28;20052;-77
2024/02/14 14:54:26;;;;;;;3.47;1.52;;;;;;;;;;5033265;28;20049;-77
2024/02/14 14:56:55;;;;;;;1.42;0.60;;;;;;;;;;5015820;28;20045;-77